sensor_id;sensor_type;location;lat;lon;timestamp;pressure;altitude;pressure_sealevel;temperature;humidity
14966;BME280;7577;45.226;5.798;2022-10-16T05:50:43;98175.25;;;13.55;100.00
14966;BME280;7577;45.226;5.798;2022-10-16T05:56:32;98191.48;;;13.49;100.00
14966;BME280;7577;45.226;5.798;2022-10-16T06:12:17;98204.62;;;13.63;100.00
14966;BME280;7577;45.226;5.798;2022-10-16T07:11:36;98267.71;;;14.42;100.00
14966;BME280;7577;45.226;5.798;2022-10-16T07:14:14;98264.11;;;14.68;100.00
14966;BME280;7577;45.226;5.798;2022-10-16T07:38:57;98287.87;;;18.25;82.40
14966;BME280;7577;45.226;5.798;2022-10-16T07:41:28;98295.09;;;19.60;75.77
14966;BME280;7577;45.226;5.798;2022-10-16T07:43:59;98301.00;;;20.54;69.78
14966;BME280;7577;45.226;5.798;2022-10-16T08:00:10;98297.23;;;24.17;51.96
14966;BME280;7577;45.226;5.798;2022-10-16T08:02:42;98306.77;;;24.80;51.17
14966;BME280;7577;45.226;5.798;2022-10-16T08:05:13;98304.78;;;25.58;48.08
14966;BME280;7577;45.226;5.798;2022-10-16T08:07:49;98303.94;;;26.17;46.70
14966;BME280;7577;45.226;5.798;2022-10-16T08:10:21;98300.44;;;26.83;45.63
14966;BME280;7577;45.226;5.798;2022-10-16T08:12:54;98298.41;;;27.31;43.05
14966;BME280;7577;45.226;5.798;2022-10-16T08:15:24;98298.02;;;27.66;42.54
14966;BME280;7577;45.226;5.798;2022-10-16T08:17:59;98291.98;;;28.02;40.59
14966;BME280;7577;45.226;5.798;2022-10-16T08:20:31;98292.20;;;28.03;40.57
14966;BME280;7577;45.226;5.798;2022-10-16T08:23:08;98300.61;;;28.10;39.74
14966;BME280;7577;45.226;5.798;2022-10-16T08:28:24;98300.09;;;28.35;39.59
14966;BME280;7577;45.226;5.798;2022-10-16T08:30:57;98302.47;;;28.30;39.09
14966;BME280;7577;45.226;5.798;2022-10-16T08:33:28;98296.89;;;27.44;39.93
14966;BME280;7577;45.226;5.798;2022-10-16T08:35:59;98295.19;;;26.18;43.30
14966;BME280;7577;45.226;5.798;2022-10-16T08:41:59;98295.13;;;25.82;44.52
14966;BME280;7577;45.226;5.798;2022-10-16T08:44:50;98296.02;;;25.04;47.61
14966;BME280;7577;45.226;5.798;2022-10-16T08:47:22;98299.29;;;25.10;49.28
14966;BME280;7577;45.226;5.798;2022-10-16T09:11:48;98307.69;;;20.59;64.31
14966;BME280;7577;45.226;5.798;2022-10-16T09:17:27;98300.67;;;20.55;66.93
14966;BME280;7577;45.226;5.798;2022-10-16T09:20:02;98302.73;;;20.52;67.29
14966;BME280;7577;45.226;5.798;2022-10-16T09:25:33;98308.61;;;20.51;68.68
14966;BME280;7577;45.226;5.798;2022-10-16T09:30:50;98312.89;;;20.54;68.24
14966;BME280;7577;45.226;5.798;2022-10-16T09:36:14;98317.27;;;20.49;69.97
14966;BME280;7577;45.226;5.798;2022-10-16T09:38:44;98315.41;;;20.47;69.19
14966;BME280;7577;45.226;5.798;2022-10-16T09:41:24;98317.33;;;20.23;68.75
14966;BME280;7577;45.226;5.798;2022-10-16T09:43:57;98329.92;;;20.06;68.81
14966;BME280;7577;45.226;5.798;2022-10-16T09:46:32;98318.03;;;19.93;69.52
14966;BME280;7577;45.226;5.798;2022-10-16T09:49:05;98320.08;;;19.90;68.40
14966;BME280;7577;45.226;5.798;2022-10-16T09:54:25;98316.77;;;20.03;68.75
14966;BME280;7577;45.226;5.798;2022-10-16T09:57:11;98318.45;;;20.10;67.37
14966;BME280;7577;45.226;5.798;2022-10-16T09:59:48;98315.27;;;19.99;66.37
14966;BME280;7577;45.226;5.798;2022-10-16T10:02:33;98319.53;;;20.29;70.35
14966;BME280;7577;45.226;5.798;2022-10-16T10:10:56;98312.19;;;20.51;66.74
14966;BME280;7577;45.226;5.798;2022-10-16T10:16:26;98307.11;;;20.47;65.37
14966;BME280;7577;45.226;5.798;2022-10-16T10:21:41;98293.98;;;20.50;66.53
14966;BME280;7577;45.226;5.798;2022-10-16T10:24:15;98303.32;;;20.58;67.03
14966;BME280;7577;45.226;5.798;2022-10-16T10:26:50;98293.86;;;20.59;64.82
14966;BME280;7577;45.226;5.798;2022-10-16T10:29:38;98292.03;;;20.57;64.75
14966;BME280;7577;45.226;5.798;2022-10-16T10:32:16;98293.63;;;20.64;66.55
14966;BME280;7577;45.226;5.798;2022-10-16T10:34:57;98299.98;;;20.76;65.88
14966;BME280;7577;45.226;5.798;2022-10-16T10:37:35;98295.94;;;20.80;62.72
14966;BME280;7577;45.226;5.798;2022-10-16T10:40:13;98293.62;;;20.82;64.28
14966;BME280;7577;45.226;5.798;2022-10-16T10:42:46;98291.20;;;20.86;63.60
14966;BME280;7577;45.226;5.798;2022-10-16T10:45:22;98281.98;;;21.00;64.94
14966;BME280;7577;45.226;5.798;2022-10-16T10:48:04;98276.20;;;21.05;63.00
14966;BME280;7577;45.226;5.798;2022-10-16T10:53:33;98268.84;;;21.03;62.30
14966;BME280;7577;45.226;5.798;2022-10-16T10:56:10;98273.09;;;21.07;62.47
14966;BME280;7577;45.226;5.798;2022-10-16T10:58:53;98266.17;;;21.13;64.62
14966;BME280;7577;45.226;5.798;2022-10-16T11:01:26;98265.43;;;21.28;64.07
14966;BME280;7577;45.226;5.798;2022-10-16T11:04:07;98260.11;;;21.29;63.32
14966;BME280;7577;45.226;5.798;2022-10-16T11:06:39;98253.53;;;21.33;62.24
14966;BME280;7577;45.226;5.798;2022-10-16T11:09:13;98259.04;;;21.39;64.89
14966;BME280;7577;45.226;5.798;2022-10-16T11:11:47;98246.10;;;21.43;65.72
14966;BME280;7577;45.226;5.798;2022-10-16T11:14:29;98245.81;;;21.54;63.82
14966;BME280;7577;45.226;5.798;2022-10-16T11:17:02;98236.37;;;21.49;64.66
14966;BME280;7577;45.226;5.798;2022-10-16T11:22:22;98227.41;;;21.89;66.49
14966;BME280;7577;45.226;5.798;2022-10-16T11:30:42;98215.98;;;22.06;66.51
14966;BME280;7577;45.226;5.798;2022-10-16T11:33:29;98211.25;;;22.23;65.67
14966;BME280;7577;45.226;5.798;2022-10-16T11:36:08;98206.16;;;22.40;65.47
14966;BME280;7577;45.226;5.798;2022-10-16T11:41:32;98203.69;;;22.85;57.47
14966;BME280;7577;45.226;5.798;2022-10-16T11:51:03;98193.75;;;23.28;56.25
14966;BME280;7577;45.226;5.798;2022-10-16T11:53:55;98200.16;;;23.42;54.45
14966;BME280;7577;45.226;5.798;2022-10-16T11:56:42;98193.07;;;23.54;54.51
14966;BME280;7577;45.226;5.798;2022-10-16T11:59:18;98198.69;;;23.67;53.03
14966;BME280;7577;45.226;5.798;2022-10-16T12:01:54;98197.50;;;23.77;51.38
14966;BME280;7577;45.226;5.798;2022-10-16T12:04:29;98195.66;;;23.75;52.42
14966;BME280;7577;45.226;5.798;2022-10-16T12:42:32;98184.39;;;24.32;48.24
14966;BME280;7577;45.226;5.798;2022-10-16T12:45:21;98186.86;;;24.24;48.87
14966;BME280;7577;45.226;5.798;2022-10-16T12:47:51;98174.55;;;24.25;48.69
14966;BME280;7577;45.226;5.798;2022-10-16T12:50:29;98184.55;;;24.30;48.64
14966;BME280;7577;45.226;5.798;2022-10-16T12:53:01;98177.05;;;24.21;47.90
14966;BME280;7577;45.226;5.798;2022-10-16T12:59:06;98183.77;;;24.29;48.70
14966;BME280;7577;45.226;5.798;2022-10-16T13:01:49;98181.72;;;24.26;46.51
14966;BME280;7577;45.226;5.798;2022-10-16T13:04:45;98180.51;;;24.14;48.00
14966;BME280;7577;45.226;5.798;2022-10-16T13:07:48;98173.69;;;24.21;46.06
14966;BME280;7577;45.226;5.798;2022-10-16T13:10:25;98180.45;;;24.33;47.13
14966;BME280;7577;45.226;5.798;2022-10-16T13:44:54;98163.13;;;24.21;46.48
14966;BME280;7577;45.226;5.798;2022-10-16T13:47:34;98173.29;;;24.10;47.42
14966;BME280;7577;45.226;5.798;2022-10-16T14:20:29;98173.11;;;24.48;45.67
14966;BME280;7577;45.226;5.798;2022-10-16T14:25:42;98170.63;;;24.30;45.76
14966;BME280;7577;45.226;5.798;2022-10-16T14:28:20;98174.26;;;24.21;45.21
14966;BME280;7577;45.226;5.798;2022-10-16T14:33:44;98175.55;;;24.14;45.66
14966;BME280;7577;45.226;5.798;2022-10-16T14:36:16;98180.09;;;24.12;45.82
14966;BME280;7577;45.226;5.798;2022-10-16T14:38:58;98177.73;;;24.14;45.44
14966;BME280;7577;45.226;5.798;2022-10-16T14:44:16;98181.90;;;24.14;45.06
14966;BME280;7577;45.226;5.798;2022-10-16T14:46:47;98184.18;;;23.96;46.07
14966;BME280;7577;45.226;5.798;2022-10-16T14:52:00;98174.65;;;23.97;45.87
14966;BME280;7577;45.226;5.798;2022-10-16T14:54:31;98178.56;;;24.05;45.89
14966;BME280;7577;45.226;5.798;2022-10-16T14:59:57;98185.86;;;24.13;45.65
14966;BME280;7577;45.226;5.798;2022-10-16T15:02:29;98183.03;;;24.10;45.67
14966;BME280;7577;45.226;5.798;2022-10-16T15:05:07;98185.50;;;24.15;46.05
14966;BME280;7577;45.226;5.798;2022-10-16T15:10:18;98185.13;;;24.16;45.93
14966;BME280;7577;45.226;5.798;2022-10-16T15:12:50;98189.33;;;24.07;46.17
14966;BME280;7577;45.226;5.798;2022-10-16T15:15:33;98192.78;;;24.00;46.45
14966;BME280;7577;45.226;5.798;2022-10-16T15:18:09;98194.92;;;23.88;46.31
14966;BME280;7577;45.226;5.798;2022-10-16T15:23:25;98182.72;;;23.73;46.30
14966;BME280;7577;45.226;5.798;2022-10-16T15:39:42;98195.91;;;23.67;46.25
14966;BME280;7577;45.226;5.798;2022-10-16T15:44:52;98204.09;;;23.69;45.63
14966;BME280;7577;45.226;5.798;2022-10-16T15:47:22;98200.44;;;23.65;45.25
14966;BME280;7577;45.226;5.798;2022-10-16T15:49:53;98215.83;;;23.59;45.83
14966;BME280;7577;45.226;5.798;2022-10-16T15:52:23;98216.77;;;23.57;44.94
14966;BME280;7577;45.226;5.798;2022-10-16T15:54:53;98213.61;;;23.49;45.88
14966;BME280;7577;45.226;5.798;2022-10-16T15:57:24;98205.14;;;23.33;46.75
14966;BME280;7577;45.226;5.798;2022-10-16T15:59:54;98210.91;;;23.34;45.94
14966;BME280;7577;45.226;5.798;2022-10-16T16:05:09;98219.34;;;23.28;45.95
14966;BME280;7577;45.226;5.798;2022-10-16T16:07:40;98229.91;;;23.13;46.40
14966;BME280;7577;45.226;5.798;2022-10-16T16:10:12;98225.55;;;22.96;46.88
14966;BME280;7577;45.226;5.798;2022-10-16T16:12:42;98233.06;;;22.86;47.67
14966;BME280;7577;45.226;5.798;2022-10-16T16:15:14;98225.94;;;22.79;47.36
14966;BME280;7577;45.226;5.798;2022-10-16T16:17:45;98229.89;;;22.69;47.27
14966;BME280;7577;45.226;5.798;2022-10-16T16:20:15;98232.55;;;22.65;47.39
14966;BME280;7577;45.226;5.798;2022-10-16T16:25:30;98239.02;;;22.54;47.62
14966;BME280;7577;45.226;5.798;2022-10-16T16:28:00;98246.83;;;22.42;48.33
14966;BME280;7577;45.226;5.798;2022-10-16T16:30:30;98249.66;;;22.36;48.23
14966;BME280;7577;45.226;5.798;2022-10-16T16:35:43;98249.83;;;22.28;47.94
14966;BME280;7577;45.226;5.798;2022-10-16T16:38:13;98254.47;;;22.23;47.96
14966;BME280;7577;45.226;5.798;2022-10-16T16:40:44;98256.34;;;22.19;48.41
14966;BME280;7577;45.226;5.798;2022-10-16T16:43:14;98261.86;;;22.10;48.79
14966;BME280;7577;45.226;5.798;2022-10-16T16:45:44;98265.63;;;21.96;49.17
14966;BME280;7577;45.226;5.798;2022-10-16T16:48:14;98258.69;;;21.96;49.00
14966;BME280;7577;45.226;5.798;2022-10-16T16:53:26;98270.66;;;21.84;49.65
14966;BME280;7577;45.226;5.798;2022-10-16T16:58:49;98281.13;;;21.91;49.34
14966;BME280;7577;45.226;5.798;2022-10-16T17:01:20;98285.81;;;21.81;49.39
14966;BME280;7577;45.226;5.798;2022-10-16T17:03:52;98291.36;;;22.02;48.83
14966;BME280;7577;45.226;5.798;2022-10-16T17:09:06;98288.70;;;22.06;48.70
14966;BME280;7577;45.226;5.798;2022-10-16T17:11:38;98293.91;;;22.01;48.89
14966;BME280;7577;45.226;5.798;2022-10-16T17:14:10;98295.12;;;21.94;49.26
14966;BME280;7577;45.226;5.798;2022-10-16T17:16:41;98303.01;;;21.86;49.78
14966;BME280;7577;45.226;5.798;2022-10-16T17:19:14;98309.13;;;21.86;49.60
14966;BME280;7577;45.226;5.798;2022-10-16T17:21:46;98310.77;;;21.81;49.81
14966;BME280;7577;45.226;5.798;2022-10-16T17:27:01;98313.06;;;21.85;49.87
14966;BME280;7577;45.226;5.798;2022-10-16T17:29:32;98322.07;;;21.88;49.35
14966;BME280;7577;45.226;5.798;2022-10-16T17:32:02;98325.66;;;21.82;49.73
14966;BME280;7577;45.226;5.798;2022-10-16T17:34:32;98341.48;;;21.82;49.54
14966;BME280;7577;45.226;5.798;2022-10-16T17:37:03;98346.50;;;21.70;50.05
14966;BME280;7577;45.226;5.798;2022-10-16T17:39:34;98348.70;;;21.71;50.25
14966;BME280;7577;45.226;5.798;2022-10-16T17:42:04;98345.20;;;21.68;50.02
14966;BME280;7577;45.226;5.798;2022-10-16T17:44:34;98351.91;;;21.61;50.60
14966;BME280;7577;45.226;5.798;2022-10-16T17:49:44;98355.73;;;21.74;50.26
14966;BME280;7577;45.226;5.798;2022-10-16T17:52:15;98361.74;;;21.70;50.18
14966;BME280;7577;45.226;5.798;2022-10-16T17:54:45;98366.81;;;21.74;50.25
14966;BME280;7577;45.226;5.798;2022-10-16T17:57:15;98364.95;;;21.78;50.35
14966;BME280;7577;45.226;5.798;2022-10-16T17:59:45;98383.58;;;21.72;50.25
14966;BME280;7577;45.226;5.798;2022-10-16T18:02:16;98385.08;;;21.69;50.38
14966;BME280;7577;45.226;5.798;2022-10-16T18:04:46;98388.98;;;21.68;50.53
14966;BME280;7577;45.226;5.798;2022-10-16T18:07:17;98386.34;;;21.72;50.47
14966;BME280;7577;45.226;5.798;2022-10-16T18:09:47;98392.01;;;21.63;50.46
14966;BME280;7577;45.226;5.798;2022-10-16T18:12:20;98401.21;;;21.67;50.63
14966;BME280;7577;45.226;5.798;2022-10-16T18:14:49;98395.83;;;21.71;51.10
14966;BME280;7577;45.226;5.798;2022-10-16T18:20:07;98398.02;;;21.53;51.40
14966;BME280;7577;45.226;5.798;2022-10-16T18:22:37;98407.73;;;21.47;51.27
14966;BME280;7577;45.226;5.798;2022-10-16T18:25:08;98407.73;;;21.47;51.50
14966;BME280;7577;45.226;5.798;2022-10-16T18:27:38;98408.43;;;21.50;51.48
14966;BME280;7577;45.226;5.798;2022-10-16T18:30:09;98411.30;;;21.54;51.35
14966;BME280;7577;45.226;5.798;2022-10-16T18:32:40;98404.96;;;21.47;51.94
14966;BME280;7577;45.226;5.798;2022-10-16T18:35:10;98409.48;;;21.40;52.23
14966;BME280;7577;45.226;5.798;2022-10-16T18:37:40;98415.57;;;21.45;52.00
14966;BME280;7577;45.226;5.798;2022-10-16T18:42:50;98415.61;;;21.33;52.86
14966;BME280;7577;45.226;5.798;2022-10-16T18:45:21;98420.91;;;21.26;52.91
14966;BME280;7577;45.226;5.798;2022-10-16T18:47:51;98417.33;;;21.32;52.78
14966;BME280;7577;45.226;5.798;2022-10-16T18:50:22;98422.29;;;21.26;52.90
14966;BME280;7577;45.226;5.798;2022-10-16T18:52:53;98421.36;;;21.22;53.55
14966;BME280;7577;45.226;5.798;2022-10-16T18:55:23;98417.11;;;21.13;53.55
14966;BME280;7577;45.226;5.798;2022-10-16T18:57:53;98423.23;;;21.06;54.23
14966;BME280;7577;45.226;5.798;2022-10-16T19:03:06;98425.75;;;20.99;54.29
14966;BME280;7577;45.226;5.798;2022-10-16T19:05:37;98431.04;;;20.92;54.71
14966;BME280;7577;45.226;5.798;2022-10-16T19:08:08;98438.98;;;20.88;54.98
14966;BME280;7577;45.226;5.798;2022-10-16T19:10:38;98435.27;;;20.84;54.60
14966;BME280;7577;45.226;5.798;2022-10-16T19:13:10;98442.42;;;20.79;55.86
14966;BME280;7577;45.226;5.798;2022-10-16T19:15:43;98439.28;;;20.74;55.06
14966;BME280;7577;45.226;5.798;2022-10-16T19:21:02;98427.61;;;20.63;54.79
14966;BME280;7577;45.226;5.798;2022-10-16T19:23:33;98434.53;;;20.57;55.40
14966;BME280;7577;45.226;5.798;2022-10-16T19:26:05;98435.31;;;20.45;56.83
14966;BME280;7577;45.226;5.798;2022-10-16T19:28:36;98437.31;;;20.30;57.52
14966;BME280;7577;45.226;5.798;2022-10-16T19:31:08;98442.22;;;20.19;57.85
14966;BME280;7577;45.226;5.798;2022-10-16T19:33:39;98447.58;;;20.09;58.51
14966;BME280;7577;45.226;5.798;2022-10-16T19:38:55;98453.58;;;19.91;59.74
14966;BME280;7577;45.226;5.798;2022-10-16T19:41:28;98454.55;;;19.80;60.16
14966;BME280;7577;45.226;5.798;2022-10-16T19:44:02;98458.84;;;19.69;61.05
14966;BME280;7577;45.226;5.798;2022-10-16T19:46:33;98463.39;;;19.59;61.57
14966;BME280;7577;45.226;5.798;2022-10-16T19:49:06;98468.48;;;19.49;62.45
14966;BME280;7577;45.226;5.798;2022-10-16T19:51:37;98470.30;;;19.45;62.46
14966;BME280;7577;45.226;5.798;2022-10-16T19:54:11;98477.72;;;19.38;62.62
14966;BME280;7577;45.226;5.798;2022-10-16T19:59:24;98482.67;;;19.24;63.29
14966;BME280;7577;45.226;5.798;2022-10-16T20:01:54;98494.94;;;19.21;63.66
14966;BME280;7577;45.226;5.798;2022-10-16T20:04:24;98493.57;;;19.12;64.24
14966;BME280;7577;45.226;5.798;2022-10-16T20:06:54;98494.83;;;19.00;63.66
14966;BME280;7577;45.226;5.798;2022-10-16T20:09:25;98497.35;;;18.99;63.77
14966;BME280;7577;45.226;5.798;2022-10-16T20:11:55;98500.16;;;18.91;63.83
14966;BME280;7577;45.226;5.798;2022-10-16T20:14:25;98499.42;;;18.88;64.65
14966;BME280;7577;45.226;5.798;2022-10-16T20:16:56;98504.71;;;18.87;65.29
14966;BME280;7577;45.226;5.798;2022-10-16T20:19:27;98514.95;;;18.78;65.08
14966;BME280;7577;45.226;5.798;2022-10-16T20:21:57;98511.55;;;18.72;65.51
14966;BME280;7577;45.226;5.798;2022-10-16T20:24:27;98520.16;;;18.71;66.05
14966;BME280;7577;45.226;5.798;2022-10-16T20:26:58;98520.66;;;18.64;66.06
14966;BME280;7577;45.226;5.798;2022-10-16T20:29:28;98527.31;;;18.63;66.71
14966;BME280;7577;45.226;5.798;2022-10-16T20:34:46;98530.56;;;18.57;68.70
14966;BME280;7577;45.226;5.798;2022-10-16T20:37:17;98526.84;;;18.53;68.54
14966;BME280;7577;45.226;5.798;2022-10-16T20:39:48;98531.63;;;18.50;68.75
14966;BME280;7577;45.226;5.798;2022-10-16T20:45:04;98522.55;;;18.41;70.45
14966;BME280;7577;45.226;5.798;2022-10-16T20:47:35;98528.23;;;18.36;70.89
14966;BME280;7577;45.226;5.798;2022-10-16T20:52:51;98526.02;;;18.27;71.58
14966;BME280;7577;45.226;5.798;2022-10-16T20:55:22;98526.65;;;18.24;71.81
14966;BME280;7577;45.226;5.798;2022-10-16T20:57:52;98529.53;;;18.47;69.74
14966;BME280;7577;45.226;5.798;2022-10-16T21:00:23;98536.02;;;18.42;69.99
14966;BME280;7577;45.226;5.798;2022-10-16T21:02:53;98535.52;;;18.49;71.13
14966;BME280;7577;45.226;5.798;2022-10-16T21:05:25;98538.59;;;18.47;70.69
14966;BME280;7577;45.226;5.798;2022-10-16T21:07:57;98538.69;;;18.45;70.62
14966;BME280;7577;45.226;5.798;2022-10-16T21:10:29;98530.11;;;18.38;71.71
14966;BME280;7577;45.226;5.798;2022-10-16T21:13:00;98530.80;;;18.32;72.87
14966;BME280;7577;45.226;5.798;2022-10-16T21:15:31;98539.16;;;18.30;72.68
14966;BME280;7577;45.226;5.798;2022-10-16T21:18:01;98542.88;;;18.25;72.33
14966;BME280;7577;45.226;5.798;2022-10-16T21:20:31;98548.55;;;18.20;73.68
14966;BME280;7577;45.226;5.798;2022-10-16T21:23:03;98550.02;;;18.18;72.40
14966;BME280;7577;45.226;5.798;2022-10-16T21:28:14;98541.98;;;18.10;73.51
14966;BME280;7577;45.226;5.798;2022-10-16T21:33:31;98547.63;;;17.97;72.92
14966;BME280;7577;45.226;5.798;2022-10-16T21:36:10;98552.51;;;18.00;73.10
14966;BME280;7577;45.226;5.798;2022-10-16T21:38:33;98551.20;;;17.97;72.83
14966;BME280;7577;45.226;5.798;2022-10-16T21:41:12;98550.70;;;17.95;73.52
14966;BME280;7577;45.226;5.798;2022-10-16T21:46:32;98562.95;;;17.92;73.38
14966;BME280;7577;45.226;5.798;2022-10-16T21:49:04;98566.67;;;17.87;74.29
14966;BME280;7577;45.226;5.798;2022-10-16T21:54:21;98568.69;;;17.93;71.96
14966;BME280;7577;45.226;5.798;2022-10-16T21:56:52;98574.55;;;18.00;71.07
14966;BME280;7577;45.226;5.798;2022-10-16T21:59:22;98572.70;;;17.98;71.22
14966;BME280;7577;45.226;5.798;2022-10-16T22:01:53;98575.11;;;17.99;71.42
14966;BME280;7577;45.226;5.798;2022-10-16T22:04:24;98572.14;;;18.07;71.76
14966;BME280;7577;45.226;5.798;2022-10-16T22:06:54;98578.21;;;18.06;72.35
14966;BME280;7577;45.226;5.798;2022-10-16T22:09:24;98583.37;;;17.91;74.10
14966;BME280;7577;45.226;5.798;2022-10-16T22:11:55;98584.32;;;17.86;74.17
14966;BME280;7577;45.226;5.798;2022-10-16T22:14:25;98583.83;;;17.76;75.36
14966;BME280;7577;45.226;5.798;2022-10-16T22:16:55;98584.94;;;17.75;75.94
14966;BME280;7577;45.226;5.798;2022-10-16T22:19:25;98589.20;;;17.61;76.43
14966;BME280;7577;45.226;5.798;2022-10-16T22:21:56;98581.80;;;17.51;76.29
14966;BME280;7577;45.226;5.798;2022-10-16T22:27:08;98573.94;;;17.55;75.32
14966;BME280;7577;45.226;5.798;2022-10-16T22:29:39;98576.14;;;17.56;75.78
14966;BME280;7577;45.226;5.798;2022-10-16T22:32:09;98572.47;;;17.49;77.18
14966;BME280;7577;45.226;5.798;2022-10-16T22:34:40;98581.21;;;17.51;76.59
14966;BME280;7577;45.226;5.798;2022-10-16T22:37:10;98586.41;;;17.53;76.99
14966;BME280;7577;45.226;5.798;2022-10-16T22:39:40;98579.35;;;17.49;75.92
14966;BME280;7577;45.226;5.798;2022-10-16T22:42:10;98578.60;;;17.46;77.46
14966;BME280;7577;45.226;5.798;2022-10-16T22:44:41;98580.22;;;17.47;77.67
14966;BME280;7577;45.226;5.798;2022-10-16T22:47:11;98579.58;;;17.42;77.42
14966;BME280;7577;45.226;5.798;2022-10-16T22:49:41;98580.64;;;17.43;76.87
14966;BME280;7577;45.226;5.798;2022-10-16T22:52:12;98570.73;;;17.42;77.70
14966;BME280;7577;45.226;5.798;2022-10-16T22:54:42;98570.49;;;17.41;78.26
14966;BME280;7577;45.226;5.798;2022-10-16T22:57:13;98572.93;;;17.43;78.34
14966;BME280;7577;45.226;5.798;2022-10-16T22:59:43;98582.09;;;17.41;77.81
14966;BME280;7577;45.226;5.798;2022-10-16T23:04:56;98582.07;;;17.30;79.84
14966;BME280;7577;45.226;5.798;2022-10-16T23:07:27;98588.10;;;17.21;80.62
14966;BME280;7577;45.226;5.798;2022-10-16T23:09:59;98592.54;;;17.19;81.08
14966;BME280;7577;45.226;5.798;2022-10-16T23:12:29;98583.43;;;17.10;80.71
14966;BME280;7577;45.226;5.798;2022-10-16T23:14:59;98584.88;;;17.08;81.42
14966;BME280;7577;45.226;5.798;2022-10-16T23:17:29;98588.11;;;17.10;81.73
14966;BME280;7577;45.226;5.798;2022-10-16T23:19:59;98586.42;;;17.11;82.07
14966;BME280;7577;45.226;5.798;2022-10-16T23:25:11;98590.20;;;17.04;80.82
14966;BME280;7577;45.226;5.798;2022-10-16T23:27:41;98587.14;;;17.06;80.98
14966;BME280;7577;45.226;5.798;2022-10-16T23:30:11;98597.50;;;17.09;82.13
14966;BME280;7577;45.226;5.798;2022-10-16T23:32:42;98601.38;;;17.08;82.52
14966;BME280;7577;45.226;5.798;2022-10-16T23:37:59;98599.07;;;16.90;83.69
14966;BME280;7577;45.226;5.798;2022-10-16T23:40:30;98611.79;;;16.89;84.03
14966;BME280;7577;45.226;5.798;2022-10-16T23:43:00;98610.21;;;16.85;84.92
14966;BME280;7577;45.226;5.798;2022-10-16T23:45:30;98607.59;;;16.80;84.75
14966;BME280;7577;45.226;5.798;2022-10-16T23:48:00;98609.27;;;16.79;84.41
14966;BME280;7577;45.226;5.798;2022-10-16T23:50:30;98613.16;;;16.78;84.85
14966;BME280;7577;45.226;5.798;2022-10-16T23:53:01;98628.41;;;16.73;85.59
14966;BME280;7577;45.226;5.798;2022-10-16T23:55:31;98614.55;;;16.67;85.40
14966;BME280;7577;45.226;5.798;2022-10-16T23:58:01;98616.59;;;16.61;85.59
